sensor_id;sensor_type;location;lat;lon;timestamp;pressure;altitude;pressure_sealevel;temperature;humidity
29825;BME280;16713;52.916;12.834;2023-04-27T00:01:49;101211.50;;;7.68;57.40
29825;BME280;16713;52.916;12.834;2023-04-27T00:04:16;101208.28;;;7.75;57.82
29825;BME280;16713;52.916;12.834;2023-04-27T00:06:44;101209.25;;;7.62;57.97
29825;BME280;16713;52.916;12.834;2023-04-27T00:09:11;101208.97;;;7.55;57.79
29825;BME280;16713;52.916;12.834;2023-04-27T00:11:38;101213.28;;;7.56;58.65
29825;BME280;16713;52.916;12.834;2023-04-27T00:14:04;101212.63;;;7.59;58.01
29825;BME280;16713;52.916;12.834;2023-04-27T00:16:31;101211.69;;;7.46;57.73
29825;BME280;16713;52.916;12.834;2023-04-27T00:18:57;101216.16;;;7.59;58.12
29825;BME280;16713;52.916;12.834;2023-04-27T00:21:24;101207.19;;;7.33;58.43
29825;BME280;16713;52.916;12.834;2023-04-27T00:23:50;101217.78;;;7.52;58.02
29825;BME280;16713;52.916;12.834;2023-04-27T00:26:17;101215.53;;;7.37;58.75
29825;BME280;16713;52.916;12.834;2023-04-27T00:28:43;101219.38;;;7.44;58.64
29825;BME280;16713;52.916;12.834;2023-04-27T00:31:09;101213.44;;;7.42;58.59
29825;BME280;16713;52.916;12.834;2023-04-27T00:33:36;101205.06;;;7.05;58.53
29825;BME280;16713;52.916;12.834;2023-04-27T00:36:03;101215.50;;;7.28;58.38
29825;BME280;16713;52.916;12.834;2023-04-27T00:38:29;101210.88;;;7.29;57.95
29825;BME280;16713;52.916;12.834;2023-04-27T00:41:01;101216.31;;;7.29;58.65
29825;BME280;16713;52.916;12.834;2023-04-27T00:43:27;101222.91;;;7.19;60.54
29825;BME280;16713;52.916;12.834;2023-04-27T00:45:54;101228.19;;;7.16;59.67
29825;BME280;16713;52.916;12.834;2023-04-27T00:48:21;101221.44;;;7.22;60.26
29825;BME280;16713;52.916;12.834;2023-04-27T00:50:48;101225.94;;;7.18;60.99
29825;BME280;16713;52.916;12.834;2023-04-27T00:53:14;101232.81;;;7.15;59.51
29825;BME280;16713;52.916;12.834;2023-04-27T00:55:41;101224.19;;;7.13;60.97
29825;BME280;16713;52.916;12.834;2023-04-27T00:58:07;101224.19;;;7.13;60.24
29825;BME280;16713;52.916;12.834;2023-04-27T01:00:35;101237.16;;;7.08;59.88
29825;BME280;16713;52.916;12.834;2023-04-27T01:03:02;101235.38;;;7.03;58.98
29825;BME280;16713;52.916;12.834;2023-04-27T01:05:29;101237.13;;;6.99;60.55
29825;BME280;16713;52.916;12.834;2023-04-27T01:07:58;101236.19;;;7.04;60.19
29825;BME280;16713;52.916;12.834;2023-04-27T01:10:24;101236.50;;;7.02;59.97
29825;BME280;16713;52.916;12.834;2023-04-27T01:12:50;101233.94;;;6.97;60.38
29825;BME280;16713;52.916;12.834;2023-04-27T01:15:17;101225.25;;;6.95;60.91
29825;BME280;16713;52.916;12.834;2023-04-27T01:17:43;101231.53;;;6.96;60.22
29825;BME280;16713;52.916;12.834;2023-04-27T01:20:10;101231.00;;;6.85;59.81
29825;BME280;16713;52.916;12.834;2023-04-27T01:22:37;101236.31;;;6.90;60.92
29825;BME280;16713;52.916;12.834;2023-04-27T01:25:04;101238.75;;;7.00;61.20
29825;BME280;16713;52.916;12.834;2023-04-27T01:27:31;101239.22;;;6.94;61.03
29825;BME280;16713;52.916;12.834;2023-04-27T01:29:58;101245.31;;;6.91;60.01
29825;BME280;16713;52.916;12.834;2023-04-27T01:32:24;101246.56;;;6.85;60.73
29825;BME280;16713;52.916;12.834;2023-04-27T01:34:51;101241.72;;;6.82;60.81
29825;BME280;16713;52.916;12.834;2023-04-27T01:37:17;101242.72;;;6.86;60.60
29825;BME280;16713;52.916;12.834;2023-04-27T01:39:44;101240.63;;;6.91;60.07
29825;BME280;16713;52.916;12.834;2023-04-27T01:42:11;101250.59;;;6.87;60.89
29825;BME280;16713;52.916;12.834;2023-04-27T01:44:37;101247.56;;;6.97;59.66
29825;BME280;16713;52.916;12.834;2023-04-27T01:47:04;101250.75;;;6.99;60.78
29825;BME280;16713;52.916;12.834;2023-04-27T01:49:30;101249.44;;;6.88;59.16
29825;BME280;16713;52.916;12.834;2023-04-27T01:51:56;101247.03;;;6.87;60.28
29825;BME280;16713;52.916;12.834;2023-04-27T01:54:23;101253.31;;;6.87;59.75
29825;BME280;16713;52.916;12.834;2023-04-27T01:56:52;101254.72;;;6.85;59.66
29825;BME280;16713;52.916;12.834;2023-04-27T01:59:18;101253.31;;;6.87;60.07
29825;BME280;16713;52.916;12.834;2023-04-27T02:01:44;101250.53;;;6.79;59.49
29825;BME280;16713;52.916;12.834;2023-04-27T02:04:11;101253.28;;;6.79;58.91
29825;BME280;16713;52.916;12.834;2023-04-27T02:06:38;101255.38;;;6.82;59.28
29825;BME280;16713;52.916;12.834;2023-04-27T02:09:04;101251.69;;;6.78;60.22
29825;BME280;16713;52.916;12.834;2023-04-27T02:11:31;101255.19;;;6.78;60.19
29825;BME280;16713;52.916;12.834;2023-04-27T02:13:57;101260.03;;;6.81;60.49
29825;BME280;16713;52.916;12.834;2023-04-27T02:16:24;101257.44;;;6.76;59.11
29825;BME280;16713;52.916;12.834;2023-04-27T02:18:50;101253.91;;;6.76;59.70
29825;BME280;16713;52.916;12.834;2023-04-27T02:21:18;101263.72;;;6.85;59.75
29825;BME280;16713;52.916;12.834;2023-04-27T02:23:45;101257.91;;;6.78;59.77
29825;BME280;16713;52.916;12.834;2023-04-27T02:26:19;101262.34;;;6.66;60.76
29825;BME280;16713;52.916;12.834;2023-04-27T02:28:45;101267.34;;;6.64;60.65
29825;BME280;16713;52.916;12.834;2023-04-27T02:31:15;101263.00;;;6.63;60.38
29825;BME280;16713;52.916;12.834;2023-04-27T02:33:42;101267.78;;;6.57;60.06
29825;BME280;16713;52.916;12.834;2023-04-27T02:36:08;101261.03;;;6.55;60.31
29825;BME280;16713;52.916;12.834;2023-04-27T02:38:35;101275.41;;;6.47;59.99
29825;BME280;16713;52.916;12.834;2023-04-27T02:41:01;101278.47;;;6.45;60.58
29825;BME280;16713;52.916;12.834;2023-04-27T02:43:28;101274.47;;;6.43;61.41
29825;BME280;16713;52.916;12.834;2023-04-27T02:45:54;101279.78;;;6.56;60.78
29825;BME280;16713;52.916;12.834;2023-04-27T02:48:21;101283.28;;;6.48;61.36
29825;BME280;16713;52.916;12.834;2023-04-27T02:50:47;101285.50;;;6.46;60.18
29825;BME280;16713;52.916;12.834;2023-04-27T02:53:13;101287.94;;;6.48;60.07
29825;BME280;16713;52.916;12.834;2023-04-27T02:55:45;101281.94;;;6.37;60.30
29825;BME280;16713;52.916;12.834;2023-04-27T02:58:15;101285.59;;;6.32;60.69
29825;BME280;16713;52.916;12.834;2023-04-27T03:00:42;101288.03;;;6.34;60.87
29825;BME280;16713;52.916;12.834;2023-04-27T03:03:09;101288.66;;;6.31;61.03
29825;BME280;16713;52.916;12.834;2023-04-27T03:05:35;101286.56;;;6.28;60.97
29825;BME280;16713;52.916;12.834;2023-04-27T03:08:03;101280.69;;;6.21;60.72
29825;BME280;16713;52.916;12.834;2023-04-27T03:10:29;101280.69;;;6.21;60.85
29825;BME280;16713;52.916;12.834;2023-04-27T03:12:56;101280.38;;;6.22;61.60
29825;BME280;16713;52.916;12.834;2023-04-27T03:15:22;101286.66;;;6.23;61.53
29825;BME280;16713;52.916;12.834;2023-04-27T03:17:49;101283.22;;;6.17;61.26
29825;BME280;16713;52.916;12.834;2023-04-27T03:20:15;101293.03;;;6.18;61.45
29825;BME280;16713;52.916;12.834;2023-04-27T03:22:41;101284.78;;;6.10;61.31
29825;BME280;16713;52.916;12.834;2023-04-27T03:25:10;101287.72;;;6.13;62.01
29825;BME280;16713;52.916;12.834;2023-04-27T03:27:37;101290.13;;;6.15;61.18
29825;BME280;16713;52.916;12.834;2023-04-27T03:30:04;101290.13;;;6.15;62.11
29825;BME280;16713;52.916;12.834;2023-04-27T03:32:30;101293.59;;;6.07;62.38
29825;BME280;16713;52.916;12.834;2023-04-27T03:34:57;101291.84;;;6.11;61.92
29825;BME280;16713;52.916;12.834;2023-04-27T03:37:23;101291.38;;;6.09;61.71
29825;BME280;16713;52.916;12.834;2023-04-27T03:39:51;101295.75;;;6.18;63.10
29825;BME280;16713;52.916;12.834;2023-04-27T03:42:17;101304.25;;;6.17;62.50
29825;BME280;16713;52.916;12.834;2023-04-27T03:44:44;101308.50;;;6.09;63.10
29825;BME280;16713;52.916;12.834;2023-04-27T03:47:10;101306.81;;;6.00;62.92
29825;BME280;16713;52.916;12.834;2023-04-27T03:49:37;101306.03;;;5.99;62.44
29825;BME280;16713;52.916;12.834;2023-04-27T03:52:03;101305.72;;;6.01;62.85
29825;BME280;16713;52.916;12.834;2023-04-27T03:54:30;101309.22;;;6.01;61.83
29825;BME280;16713;52.916;12.834;2023-04-27T03:56:57;101307.31;;;6.02;62.92
29825;BME280;16713;52.916;12.834;2023-04-27T03:59:23;101319.66;;;5.99;62.44
29825;BME280;16713;52.916;12.834;2023-04-27T04:01:49;101316.53;;;5.92;64.34
29825;BME280;16713;52.916;12.834;2023-04-27T04:04:17;101320.66;;;5.90;63.20
29825;BME280;16713;52.916;12.834;2023-04-27T04:06:43;101317.91;;;6.03;63.82
29825;BME280;16713;52.916;12.834;2023-04-27T04:09:10;101320.44;;;6.00;62.62
29825;BME280;16713;52.916;12.834;2023-04-27T04:11:38;101317.97;;;6.12;62.58
29825;BME280;16713;52.916;12.834;2023-04-27T04:14:04;101328.88;;;6.12;62.33
29825;BME280;16713;52.916;12.834;2023-04-27T04:16:32;101327.25;;;6.11;62.09
29825;BME280;16713;52.916;12.834;2023-04-27T04:18:59;101323.63;;;6.15;61.89
29825;BME280;16713;52.916;12.834;2023-04-27T04:21:25;101318.81;;;6.21;61.56
29825;BME280;16713;52.916;12.834;2023-04-27T04:23:51;101328.13;;;6.20;62.16
29825;BME280;16713;52.916;12.834;2023-04-27T04:26:18;101332.44;;;6.21;62.13
29825;BME280;16713;52.916;12.834;2023-04-27T04:28:45;101326.59;;;6.27;62.01
29825;BME280;16713;52.916;12.834;2023-04-27T04:31:12;101332.44;;;6.21;61.40
29825;BME280;16713;52.916;12.834;2023-04-27T04:33:40;101337.25;;;6.24;62.14
29825;BME280;16713;52.916;12.834;2023-04-27T04:36:06;101335.28;;;6.16;62.33
29825;BME280;16713;52.916;12.834;2023-04-27T04:38:33;101336.41;;;6.15;62.21
29825;BME280;16713;52.916;12.834;2023-04-27T04:40:59;101328.44;;;6.18;62.62
29825;BME280;16713;52.916;12.834;2023-04-27T04:43:26;101341.13;;;6.23;61.79
29825;BME280;16713;52.916;12.834;2023-04-27T04:45:53;101332.03;;;6.27;62.98
29825;BME280;16713;52.916;12.834;2023-04-27T04:48:19;101332.38;;;6.12;62.66
29825;BME280;16713;52.916;12.834;2023-04-27T04:50:45;101337.97;;;6.07;63.00
29825;BME280;16713;52.916;12.834;2023-04-27T04:53:12;101339.00;;;6.20;62.20
29825;BME280;16713;52.916;12.834;2023-04-27T04:55:38;101332.56;;;6.16;62.55
29825;BME280;16713;52.916;12.834;2023-04-27T04:58:06;101333.53;;;5.98;62.88
29825;BME280;16713;52.916;12.834;2023-04-27T05:00:32;101339.63;;;6.17;62.91
29825;BME280;16713;52.916;12.834;2023-04-27T05:02:59;101345.94;;;6.26;62.90
29825;BME280;16713;52.916;12.834;2023-04-27T05:05:26;101352.59;;;6.33;61.98
29825;BME280;16713;52.916;12.834;2023-04-27T05:07:53;101339.47;;;6.36;61.60
29825;BME280;16713;52.916;12.834;2023-04-27T05:10:19;101344.91;;;6.36;63.11
29825;BME280;16713;52.916;12.834;2023-04-27T05:12:46;101346.19;;;6.38;63.13
29825;BME280;16713;52.916;12.834;2023-04-27T05:15:12;101356.00;;;6.39;61.44
29825;BME280;16713;52.916;12.834;2023-04-27T05:17:39;101349.56;;;6.35;62.16
29825;BME280;16713;52.916;12.834;2023-04-27T05:20:06;101348.13;;;6.38;61.67
29825;BME280;16713;52.916;12.834;2023-04-27T05:22:33;101349.38;;;6.32;62.23
29825;BME280;16713;52.916;12.834;2023-04-27T05:24:59;101355.25;;;6.25;62.77
29825;BME280;16713;52.916;12.834;2023-04-27T05:27:26;101362.00;;;6.27;62.43
29825;BME280;16713;52.916;12.834;2023-04-27T05:29:52;101352.28;;;6.35;61.90
29825;BME280;16713;52.916;12.834;2023-04-27T05:32:19;101359.34;;;6.36;62.12
29825;BME280;16713;52.916;12.834;2023-04-27T05:34:45;101362.84;;;6.37;62.21
29825;BME280;16713;52.916;12.834;2023-04-27T05:37:14;101370.28;;;6.45;61.94
29825;BME280;16713;52.916;12.834;2023-04-27T05:39:41;101371.28;;;6.49;62.58
29825;BME280;16713;52.916;12.834;2023-04-27T05:42:07;101373.50;;;6.47;61.84
29825;BME280;16713;52.916;12.834;2023-04-27T05:44:34;101381.47;;;6.35;62.52
29825;BME280;16713;52.916;12.834;2023-04-27T05:47:00;101380.00;;;6.37;62.36
29825;BME280;16713;52.916;12.834;2023-04-27T05:49:27;101381.75;;;6.55;60.96
29825;BME280;16713;52.916;12.834;2023-04-27T05:51:53;101382.25;;;6.57;61.59
29825;BME280;16713;52.916;12.834;2023-04-27T05:54:20;101388.59;;;6.75;60.87
29825;BME280;16713;52.916;12.834;2023-04-27T05:56:47;101390.00;;;6.64;61.33
29825;BME280;16713;52.916;12.834;2023-04-27T05:59:13;101392.81;;;6.81;60.98
29825;BME280;16713;52.916;12.834;2023-04-27T06:01:40;101390.72;;;6.86;61.31
29825;BME280;16713;52.916;12.834;2023-04-27T06:04:07;101390.06;;;6.81;61.59
29825;BME280;16713;52.916;12.834;2023-04-27T06:06:34;101386.59;;;6.89;61.08
29825;BME280;16713;52.916;12.834;2023-04-27T06:09:00;101390.91;;;6.90;61.29
29825;BME280;16713;52.916;12.834;2023-04-27T06:11:27;101393.56;;;7.03;60.56
29825;BME280;16713;52.916;12.834;2023-04-27T06:13:53;101394.06;;;7.05;61.86
29825;BME280;16713;52.916;12.834;2023-04-27T06:16:20;101397.56;;;7.06;60.20
29825;BME280;16713;52.916;12.834;2023-04-27T06:18:49;101400.66;;;7.13;60.18
29825;BME280;16713;52.916;12.834;2023-04-27T06:21:15;101399.72;;;7.17;60.72
29825;BME280;16713;52.916;12.834;2023-04-27T06:23:42;101401.19;;;7.23;61.07
29825;BME280;16713;52.916;12.834;2023-04-27T06:26:08;101401.78;;;7.12;60.52
29825;BME280;16713;52.916;12.834;2023-04-27T06:28:35;101402.72;;;7.46;60.13
29825;BME280;16713;52.916;12.834;2023-04-27T06:31:01;101399.16;;;7.37;59.14
29825;BME280;16713;52.916;12.834;2023-04-27T06:33:28;101402.88;;;7.50;60.56
29825;BME280;16713;52.916;12.834;2023-04-27T06:35:54;101406.63;;;7.71;60.32
29825;BME280;16713;52.916;12.834;2023-04-27T06:38:21;101406.16;;;7.77;60.04
29825;BME280;16713;52.916;12.834;2023-04-27T06:40:50;101408.25;;;7.81;58.45
29825;BME280;16713;52.916;12.834;2023-04-27T06:43:18;101414.09;;;7.96;59.00
29825;BME280;16713;52.916;12.834;2023-04-27T06:45:44;101406.56;;;8.02;57.64
29825;BME280;16713;52.916;12.834;2023-04-27T06:48:11;101406.72;;;8.22;57.41
29825;BME280;16713;52.916;12.834;2023-04-27T06:50:37;101414.28;;;8.25;57.65
29825;BME280;16713;52.916;12.834;2023-04-27T06:53:04;101417.63;;;8.48;57.20
29825;BME280;16713;52.916;12.834;2023-04-27T06:55:30;101419.56;;;8.56;56.07
29825;BME280;16713;52.916;12.834;2023-04-27T06:57:57;101426.41;;;8.79;55.82
29825;BME280;16713;52.916;12.834;2023-04-27T07:00:23;101422.50;;;9.05;55.12
29825;BME280;16713;52.916;12.834;2023-04-27T07:02:50;101437.59;;;9.20;53.56
29825;BME280;16713;52.916;12.834;2023-04-27T07:05:17;101435.03;;;9.24;53.62
29825;BME280;16713;52.916;12.834;2023-04-27T07:07:43;101437.22;;;9.39;52.79
29825;BME280;16713;52.916;12.834;2023-04-27T07:10:10;101438.22;;;9.26;52.07
29825;BME280;16713;52.916;12.834;2023-04-27T07:12:38;101437.38;;;9.42;52.95
29825;BME280;16713;52.916;12.834;2023-04-27T07:15:05;101443.84;;;9.29;52.00
29825;BME280;16713;52.916;12.834;2023-04-27T07:17:32;101448.00;;;9.44;53.16
29825;BME280;16713;52.916;12.834;2023-04-27T07:20:00;101442.31;;;9.57;51.59
29825;BME280;16713;52.916;12.834;2023-04-27T07:22:27;101449.06;;;9.51;52.04
29825;BME280;16713;52.916;12.834;2023-04-27T07:24:54;101440.59;;;9.44;53.37
29825;BME280;16713;52.916;12.834;2023-04-27T07:27:20;101442.31;;;9.57;53.16
29825;BME280;16713;52.916;12.834;2023-04-27T07:29:47;101447.66;;;9.45;52.06
29825;BME280;16713;52.916;12.834;2023-04-27T07:32:13;101449.72;;;9.86;52.70
29825;BME280;16713;52.916;12.834;2023-04-27T07:34:40;101453.13;;;9.83;52.92
29825;BME280;16713;52.916;12.834;2023-04-27T07:37:19;101458.63;;;9.74;51.25
29825;BME280;16713;52.916;12.834;2023-04-27T07:39:45;101467.59;;;9.83;51.95
29825;BME280;16713;52.916;12.834;2023-04-27T07:42:12;101462.22;;;9.66;51.38
29825;BME280;16713;52.916;12.834;2023-04-27T07:44:38;101469.19;;;9.93;50.59
29825;BME280;16713;52.916;12.834;2023-04-27T07:47:06;101463.06;;;10.16;51.54
29825;BME280;16713;52.916;12.834;2023-04-27T07:49:32;101467.88;;;10.19;51.90
29825;BME280;16713;52.916;12.834;2023-04-27T07:52:00;101466.47;;;10.34;51.38
29825;BME280;16713;52.916;12.834;2023-04-27T07:54:26;101462.38;;;10.19;50.46
29825;BME280;16713;52.916;12.834;2023-04-27T07:56:53;101463.31;;;10.23;50.31
29825;BME280;16713;52.916;12.834;2023-04-27T07:59:19;101466.13;;;10.35;50.99
29825;BME280;16713;52.916;12.834;2023-04-27T08:01:46;101475.75;;;10.41;50.49
29825;BME280;16713;52.916;12.834;2023-04-27T08:04:13;101462.13;;;10.33;50.02
29825;BME280;16713;52.916;12.834;2023-04-27T08:06:41;101474.91;;;10.49;50.54
29825;BME280;16713;52.916;12.834;2023-04-27T08:09:08;101470.75;;;10.23;50.12
29825;BME280;16713;52.916;12.834;2023-04-27T08:11:35;101477.50;;;10.25;50.12
29825;BME280;16713;52.916;12.834;2023-04-27T08:14:02;101484.38;;;10.11;50.82
29825;BME280;16713;52.916;12.834;2023-04-27T08:16:28;101473.00;;;10.41;50.44
29825;BME280;16713;52.916;12.834;2023-04-27T08:18:55;101482.41;;;10.61;50.44
29825;BME280;16713;52.916;12.834;2023-04-27T08:21:23;101483.66;;;10.64;48.40
29825;BME280;16713;52.916;12.834;2023-04-27T08:23:50;101484.88;;;10.75;49.73
29825;BME280;16713;52.916;12.834;2023-04-27T08:26:16;101484.34;;;10.61;48.75
29825;BME280;16713;52.916;12.834;2023-04-27T08:28:43;101485.88;;;10.49;47.96
29825;BME280;16713;52.916;12.834;2023-04-27T08:31:10;101484.78;;;10.42;49.14
29825;BME280;16713;52.916;12.834;2023-04-27T08:33:36;101484.19;;;10.36;49.62
29825;BME280;16713;52.916;12.834;2023-04-27T08:36:03;101486.47;;;10.34;49.65
29825;BME280;16713;52.916;12.834;2023-04-27T08:38:29;101494.47;;;10.39;49.60
29825;BME280;16713;52.916;12.834;2023-04-27T08:40:56;101488.59;;;10.08;49.82
29825;BME280;16713;52.916;12.834;2023-04-27T08:43:33;101492.22;;;10.21;47.85
29825;BME280;16713;52.916;12.834;2023-04-27T08:46:01;101500.75;;;10.19;49.43
29825;BME280;16713;52.916;12.834;2023-04-27T08:48:28;101503.03;;;10.17;48.56
29825;BME280;16713;52.916;12.834;2023-04-27T08:50:55;101499.97;;;9.90;48.90
29825;BME280;16713;52.916;12.834;2023-04-27T08:53:22;101510.81;;;10.36;47.94
29825;BME280;16713;52.916;12.834;2023-04-27T08:55:49;101509.53;;;10.33;48.02
29825;BME280;16713;52.916;12.834;2023-04-27T08:58:16;101505.38;;;10.07;47.74
29825;BME280;16713;52.916;12.834;2023-04-27T09:00:43;101503.69;;;10.14;49.55
29825;BME280;16713;52.916;12.834;2023-04-27T09:03:24;101496.81;;;10.29;49.74
29825;BME280;16713;52.916;12.834;2023-04-27T09:05:51;101517.41;;;10.35;47.61
29825;BME280;16713;52.916;12.834;2023-04-27T09:11:08;101514.00;;;10.46;46.77
29825;BME280;16713;52.916;12.834;2023-04-27T09:13:38;101513.13;;;10.54;47.71
29825;BME280;16713;52.916;12.834;2023-04-27T09:16:06;101514.31;;;10.66;46.90
29825;BME280;16713;52.916;12.834;2023-04-27T09:18:36;101521.34;;;10.54;46.58
29825;BME280;16713;52.916;12.834;2023-04-27T09:21:03;101517.88;;;10.66;45.25
29825;BME280;16713;52.916;12.834;2023-04-27T09:23:37;101522.09;;;10.84;46.12
29825;BME280;16713;52.916;12.834;2023-04-27T09:26:06;101517.38;;;11.05;46.15
29825;BME280;16713;52.916;12.834;2023-04-27T09:28:38;101517.47;;;11.09;45.54
29825;BME280;16713;52.916;12.834;2023-04-27T09:31:05;101520.19;;;10.97;44.10
29825;BME280;16713;52.916;12.834;2023-04-27T09:33:34;101515.81;;;11.28;45.20
29825;BME280;16713;52.916;12.834;2023-04-27T09:36:03;101521.69;;;11.39;45.06
29825;BME280;16713;52.916;12.834;2023-04-27T09:38:30;101520.00;;;11.46;46.38
29825;BME280;16713;52.916;12.834;2023-04-27T09:40:58;101514.28;;;11.51;45.86
29825;BME280;16713;52.916;12.834;2023-04-27T09:43:25;101521.16;;;11.57;46.45
29825;BME280;16713;52.916;12.834;2023-04-27T09:45:54;101514.91;;;11.69;46.72
29825;BME280;16713;52.916;12.834;2023-04-27T09:48:22;101507.75;;;11.56;44.91
29825;BME280;16713;52.916;12.834;2023-04-27T09:50:50;101511.06;;;11.49;44.96
29825;BME280;16713;52.916;12.834;2023-04-27T09:53:18;101501.56;;;11.47;44.42
29825;BME280;16713;52.916;12.834;2023-04-27T10:07:06;101509.09;;;11.38;44.62
29825;BME280;16713;52.916;12.834;2023-04-27T10:09:40;101501.88;;;11.33;44.74
29825;BME280;16713;52.916;12.834;2023-04-27T10:12:21;101506.13;;;11.31;44.60
29825;BME280;16713;52.916;12.834;2023-04-27T10:14:49;101500.78;;;11.14;44.33
29825;BME280;16713;52.916;12.834;2023-04-27T10:17:17;101505.91;;;11.03;44.84
29825;BME280;16713;52.916;12.834;2023-04-27T10:22:43;101509.56;;;11.07;44.44
29825;BME280;16713;52.916;12.834;2023-04-27T10:25:19;101510.31;;;10.96;44.65
29825;BME280;16713;52.916;12.834;2023-04-27T10:28:01;101508.47;;;10.88;45.03
29825;BME280;16713;52.916;12.834;2023-04-27T10:30:34;101501.34;;;10.75;44.44
29825;BME280;16713;52.916;12.834;2023-04-27T10:33:06;101504.81;;;10.84;44.55
29825;BME280;16713;52.916;12.834;2023-04-27T10:38:08;101501.44;;;10.99;46.49
29825;BME280;16713;52.916;12.834;2023-04-27T10:40:36;101513.47;;;11.06;46.35
29825;BME280;16713;52.916;12.834;2023-04-27T10:43:10;101508.34;;;11.17;46.64
29825;BME280;16713;52.916;12.834;2023-04-27T10:45:37;101511.22;;;11.20;45.84
29825;BME280;16713;52.916;12.834;2023-04-27T10:48:04;101501.00;;;10.55;45.33
29825;BME280;16713;52.916;12.834;2023-04-27T10:50:30;101516.31;;;10.77;44.69
29825;BME280;16713;52.916;12.834;2023-04-27T10:53:03;101517.31;;;10.93;44.18
29825;BME280;16713;52.916;12.834;2023-04-27T10:55:30;101510.13;;;11.01;44.79
29825;BME280;16713;52.916;12.834;2023-04-27T10:57:57;101508.69;;;10.83;45.34
29825;BME280;16713;52.916;12.834;2023-04-27T11:00:44;101515.88;;;11.08;46.69
29825;BME280;16713;52.916;12.834;2023-04-27T11:03:16;101510.03;;;10.97;46.57
29825;BME280;16713;52.916;12.834;2023-04-27T11:05:45;101513.13;;;11.08;46.83
29825;BME280;16713;52.916;12.834;2023-04-27T11:08:14;101518.63;;;11.08;48.16
29825;BME280;16713;52.916;12.834;2023-04-27T11:10:49;101519.72;;;11.27;47.67
29825;BME280;16713;52.916;12.834;2023-04-27T11:13:20;101512.72;;;11.30;47.29
29825;BME280;16713;52.916;12.834;2023-04-27T11:15:52;101513.41;;;11.27;46.27
29825;BME280;16713;52.916;12.834;2023-04-27T11:18:23;101518.09;;;11.26;46.33
29825;BME280;16713;52.916;12.834;2023-04-27T11:20:51;101512.25;;;11.16;46.79
29825;BME280;16713;52.916;12.834;2023-04-27T11:23:29;101515.91;;;11.20;46.21
29825;BME280;16713;52.916;12.834;2023-04-27T11:26:13;101501.41;;;11.31;45.59
29825;BME280;16713;52.916;12.834;2023-04-27T11:28:44;101497.53;;;11.00;45.06
29825;BME280;16713;52.916;12.834;2023-04-27T11:31:11;101517.66;;;11.36;44.85
29825;BME280;16713;52.916;12.834;2023-04-27T11:33:38;101513.47;;;11.39;45.13
29825;BME280;16713;52.916;12.834;2023-04-27T11:36:23;101529.53;;;11.61;44.35
29825;BME280;16713;52.916;12.834;2023-04-27T11:38:56;101526.03;;;11.52;44.00
29825;BME280;16713;52.916;12.834;2023-04-27T11:41:34;101531.31;;;11.57;43.49
29825;BME280;16713;52.916;12.834;2023-04-27T11:44:06;101537.00;;;11.72;42.83
29825;BME280;16713;52.916;12.834;2023-04-27T11:46:34;101530.44;;;11.65;43.12
29825;BME280;16713;52.916;12.834;2023-04-27T11:49:05;101536.88;;;11.69;42.45
29825;BME280;16713;52.916;12.834;2023-04-27T11:51:34;101546.53;;;11.87;43.35
29825;BME280;16713;52.916;12.834;2023-04-27T11:54:02;101532.75;;;11.75;43.56
29825;BME280;16713;52.916;12.834;2023-04-27T11:56:37;101539.53;;;11.77;43.17
29825;BME280;16713;52.916;12.834;2023-04-27T11:59:04;101556.13;;;12.05;43.15
29825;BME280;16713;52.916;12.834;2023-04-27T12:01:34;101534.03;;;11.77;42.88
29825;BME280;16713;52.916;12.834;2023-04-27T12:04:03;101558.09;;;12.05;43.03
29825;BME280;16713;52.916;12.834;2023-04-27T12:06:30;101554.22;;;12.18;43.76
29825;BME280;16713;52.916;12.834;2023-04-27T12:08:59;101557.84;;;12.22;42.30
29825;BME280;16713;52.916;12.834;2023-04-27T12:11:27;101550.06;;;12.12;43.49
29825;BME280;16713;52.916;12.834;2023-04-27T12:13:54;101560.13;;;12.20;42.10
29825;BME280;16713;52.916;12.834;2023-04-27T12:16:21;101541.81;;;11.87;41.97
29825;BME280;16713;52.916;12.834;2023-04-27T12:18:50;101557.28;;;12.16;42.24
29825;BME280;16713;52.916;12.834;2023-04-27T12:21:17;101550.19;;;11.91;43.25
29825;BME280;16713;52.916;12.834;2023-04-27T12:23:44;101548.13;;;12.12;43.20
29825;BME280;16713;52.916;12.834;2023-04-27T12:26:10;101554.41;;;12.25;43.71
29825;BME280;16713;52.916;12.834;2023-04-27T12:28:40;101541.00;;;11.99;43.92
29825;BME280;16713;52.916;12.834;2023-04-27T12:31:06;101553.06;;;12.19;43.05
29825;BME280;16713;52.916;12.834;2023-04-27T12:33:33;101534.13;;;12.05;43.51
29825;BME280;16713;52.916;12.834;2023-04-27T12:36:00;101522.69;;;11.67;43.66
29825;BME280;16713;52.916;12.834;2023-04-27T12:38:26;101543.41;;;12.01;44.07
29825;BME280;16713;52.916;12.834;2023-04-27T12:40:53;101546.03;;;11.61;43.74
29825;BME280;16713;52.916;12.834;2023-04-27T12:43:19;101541.53;;;11.56;42.47
29825;BME280;16713;52.916;12.834;2023-04-27T12:45:46;101543.19;;;11.81;42.77
29825;BME280;16713;52.916;12.834;2023-04-27T12:48:12;101555.13;;;12.10;43.38
29825;BME280;16713;52.916;12.834;2023-04-27T12:50:42;101547.31;;;11.75;41.32
29825;BME280;16713;52.916;12.834;2023-04-27T12:53:09;101544.44;;;11.84;41.56
29825;BME280;16713;52.916;12.834;2023-04-27T12:55:35;101525.91;;;11.36;41.63
29825;BME280;16713;52.916;12.834;2023-04-27T12:58:02;101529.81;;;11.47;41.89
29825;BME280;16713;52.916;12.834;2023-04-27T13:00:30;101546.84;;;11.73;42.83
29825;BME280;16713;52.916;12.834;2023-04-27T13:02:56;101552.13;;;11.78;43.18
29825;BME280;16713;52.916;12.834;2023-04-27T13:05:24;101547.66;;;11.74;43.40
29825;BME280;16713;52.916;12.834;2023-04-27T13:07:51;101550.06;;;11.87;43.57